sensor_id;sensor_type;location;lat;lon;timestamp;pressure;altitude;pressure_sealevel;temperature;humidity
3254;BME280;1639;42.804;23.342;2024-02-21T00:00:35;74126.50;;;-148.52;90.96
3254;BME280;1639;42.804;23.342;2024-02-21T00:03:00;74126.50;;;-148.52;91.43
3254;BME280;1639;42.804;23.342;2024-02-21T00:05:27;74128.56;;;-148.52;91.63
3254;BME280;1639;42.804;23.342;2024-02-21T00:07:53;74120.31;;;-148.52;91.73
3254;BME280;1639;42.804;23.342;2024-02-21T00:10:18;74120.31;;;-148.52;90.56
3254;BME280;1639;42.804;23.342;2024-02-21T00:12:43;74118.22;;;-148.52;90.46
3254;BME280;1639;42.804;23.342;2024-02-21T00:15:09;74116.16;;;-148.52;90.17
3254;BME280;1639;42.804;23.342;2024-02-21T00:17:34;74130.66;;;-148.52;90.03
3254;BME280;1639;42.804;23.342;2024-02-21T00:20:00;74134.78;;;-148.52;89.42
3254;BME280;1639;42.804;23.342;2024-02-21T00:22:25;74122.38;;;-148.52;89.71
3254;BME280;1639;42.804;23.342;2024-02-21T00:24:54;74130.66;;;-148.52;89.15
3254;BME280;1639;42.804;23.342;2024-02-21T00:27:19;74132.72;;;-148.52;89.18
3254;BME280;1639;42.804;23.342;2024-02-21T00:29:44;74134.78;;;-148.52;88.73
3254;BME280;1639;42.804;23.342;2024-02-21T00:32:10;74132.72;;;-148.52;89.61
3254;BME280;1639;42.804;23.342;2024-02-21T00:34:35;74132.72;;;-148.52;89.04
3254;BME280;1639;42.804;23.342;2024-02-21T00:37:00;74151.34;;;-148.52;89.51
3254;BME280;1639;42.804;23.342;2024-02-21T00:39:26;74161.69;;;-148.52;89.90
3254;BME280;1639;42.804;23.342;2024-02-21T00:41:51;74192.72;;;-148.52;90.98
3254;BME280;1639;42.804;23.342;2024-02-21T00:44:17;74194.78;;;-148.52;92.11
3254;BME280;1639;42.804;23.342;2024-02-21T00:46:42;74200.97;;;-148.52;92.81
3254;BME280;1639;42.804;23.342;2024-02-21T00:49:07;74207.19;;;-148.52;92.96
3254;BME280;1639;42.804;23.342;2024-02-21T00:51:33;74209.25;;;-148.52;94.12
3254;BME280;1639;42.804;23.342;2024-02-21T00:53:58;74188.56;;;-148.52;94.42
3254;BME280;1639;42.804;23.342;2024-02-21T00:56:24;74188.56;;;-148.52;93.42
3254;BME280;1639;42.804;23.342;2024-02-21T00:58:49;74188.56;;;-148.52;93.06
3254;BME280;1639;42.804;23.342;2024-02-21T01:01:21;74184.44;;;-148.52;93.32
3254;BME280;1639;42.804;23.342;2024-02-21T01:03:48;74186.50;;;-148.52;92.88
3254;BME280;1639;42.804;23.342;2024-02-21T01:06:13;74196.84;;;-148.52;93.38
3254;BME280;1639;42.804;23.342;2024-02-21T01:08:38;74207.19;;;-148.52;94.03
3254;BME280;1639;42.804;23.342;2024-02-21T01:11:04;74217.53;;;-148.52;94.68
3254;BME280;1639;42.804;23.342;2024-02-21T01:13:29;74209.25;;;-148.52;94.94
3254;BME280;1639;42.804;23.342;2024-02-21T01:15:54;74200.97;;;-148.52;95.52
3254;BME280;1639;42.804;23.342;2024-02-21T01:18:20;74192.72;;;-148.52;95.26
3254;BME280;1639;42.804;23.342;2024-02-21T01:20:45;74196.84;;;-148.52;94.93
3254;BME280;1639;42.804;23.342;2024-02-21T01:23:10;74192.72;;;-148.52;94.75
3254;BME280;1639;42.804;23.342;2024-02-21T01:25:36;74184.44;;;-148.52;95.01
3254;BME280;1639;42.804;23.342;2024-02-21T01:28:01;74205.13;;;-148.52;94.50
3254;BME280;1639;42.804;23.342;2024-02-21T01:30:26;74200.97;;;-148.52;94.97
3254;BME280;1639;42.804;23.342;2024-02-21T01:32:52;74196.84;;;-148.52;94.95
3254;BME280;1639;42.804;23.342;2024-02-21T01:35:17;74196.84;;;-148.52;94.85
3254;BME280;1639;42.804;23.342;2024-02-21T01:37:43;74200.97;;;-148.52;94.38
3254;BME280;1639;42.804;23.342;2024-02-21T01:40:09;74213.41;;;-148.52;94.65
3254;BME280;1639;42.804;23.342;2024-02-21T01:42:38;74211.31;;;-148.52;94.85
3254;BME280;1639;42.804;23.342;2024-02-21T01:45:05;74221.66;;;-148.52;95.26
3254;BME280;1639;42.804;23.342;2024-02-21T01:47:30;74217.53;;;-148.52;95.41
3254;BME280;1639;42.804;23.342;2024-02-21T01:49:56;74219.59;;;-148.52;96.03
3254;BME280;1639;42.804;23.342;2024-02-21T01:52:21;74217.53;;;-148.52;96.76
3254;BME280;1639;42.804;23.342;2024-02-21T01:54:47;74221.66;;;-148.52;97.54
3254;BME280;1639;42.804;23.342;2024-02-21T01:57:13;74225.81;;;-148.52;97.33
3254;BME280;1639;42.804;23.342;2024-02-21T01:59:39;74221.66;;;-148.52;98.20
3254;BME280;1639;42.804;23.342;2024-02-21T02:02:05;74225.81;;;-148.52;98.23
3254;BME280;1639;42.804;23.342;2024-02-21T02:04:30;74223.75;;;-148.52;98.94
3254;BME280;1639;42.804;23.342;2024-02-21T02:06:57;74221.66;;;-148.52;99.47
3254;BME280;1639;42.804;23.342;2024-02-21T02:09:25;74217.53;;;-148.52;99.30
3254;BME280;1639;42.804;23.342;2024-02-21T02:11:51;74209.25;;;-148.52;98.88
3254;BME280;1639;42.804;23.342;2024-02-21T02:14:16;74213.41;;;-148.52;98.09
3254;BME280;1639;42.804;23.342;2024-02-21T02:16:41;74209.25;;;-148.52;98.50
3254;BME280;1639;42.804;23.342;2024-02-21T02:19:07;74205.13;;;-148.52;97.92
3254;BME280;1639;42.804;23.342;2024-02-21T02:21:34;74194.78;;;-148.52;97.77
3254;BME280;1639;42.804;23.342;2024-02-21T02:24:02;74186.50;;;-148.52;96.86
3254;BME280;1639;42.804;23.342;2024-02-21T02:26:28;74180.28;;;-148.52;96.38
3254;BME280;1639;42.804;23.342;2024-02-21T02:28:53;74184.44;;;-148.52;95.27
3254;BME280;1639;42.804;23.342;2024-02-21T02:31:19;74196.84;;;-148.52;94.04
3254;BME280;1639;42.804;23.342;2024-02-21T02:33:44;74192.72;;;-148.52;94.62
3254;BME280;1639;42.804;23.342;2024-02-21T02:36:09;74196.84;;;-148.52;93.97
3254;BME280;1639;42.804;23.342;2024-02-21T02:38:35;74194.78;;;-148.52;94.73
3254;BME280;1639;42.804;23.342;2024-02-21T02:41:00;74196.84;;;-148.52;94.31
3254;BME280;1639;42.804;23.342;2024-02-21T02:43:26;74196.84;;;-148.52;95.46
3254;BME280;1639;42.804;23.342;2024-02-21T02:45:51;74196.84;;;-148.52;95.54
3254;BME280;1639;42.804;23.342;2024-02-21T02:48:16;74192.72;;;-148.52;94.62
3254;BME280;1639;42.804;23.342;2024-02-21T02:50:42;74188.56;;;-148.52;94.71
3254;BME280;1639;42.804;23.342;2024-02-21T02:53:07;74176.16;;;-148.52;95.09
3254;BME280;1639;42.804;23.342;2024-02-21T02:55:32;74180.28;;;-148.52;94.50
3254;BME280;1639;42.804;23.342;2024-02-21T02:57:58;74186.50;;;-148.52;93.24
3254;BME280;1639;42.804;23.342;2024-02-21T03:00:23;74190.63;;;-148.52;93.65
3254;BME280;1639;42.804;23.342;2024-02-21T03:02:49;74184.44;;;-148.52;92.95
3254;BME280;1639;42.804;23.342;2024-02-21T03:05:24;74182.38;;;-148.52;93.45
3254;BME280;1639;42.804;23.342;2024-02-21T03:07:49;74186.50;;;-148.52;93.00
3254;BME280;1639;42.804;23.342;2024-02-21T03:10:15;74207.19;;;-148.52;93.59
3254;BME280;1639;42.804;23.342;2024-02-21T03:12:42;74209.25;;;-148.52;94.61
3254;BME280;1639;42.804;23.342;2024-02-21T03:15:07;74213.41;;;-148.52;96.53
3254;BME280;1639;42.804;23.342;2024-02-21T03:17:33;74221.66;;;-148.52;97.97
3254;BME280;1639;42.804;23.342;2024-02-21T03:20:05;74238.22;;;-148.52;100.00
3254;BME280;1639;42.804;23.342;2024-02-21T03:22:31;74246.50;;;-148.52;100.00
3254;BME280;1639;42.804;23.342;2024-02-21T03:24:57;74256.84;;;-148.52;100.00
3254;BME280;1639;42.804;23.342;2024-02-21T03:27:23;74263.03;;;-148.52;100.00
3254;BME280;1639;42.804;23.342;2024-02-21T03:29:48;74271.31;;;-148.52;100.00
3254;BME280;1639;42.804;23.342;2024-02-21T03:32:13;74254.78;;;-148.52;100.00
3254;BME280;1639;42.804;23.342;2024-02-21T03:34:39;74242.38;;;-148.52;100.00
3254;BME280;1639;42.804;23.342;2024-02-21T03:37:04;74232.00;;;-148.52;100.00
3254;BME280;1639;42.804;23.342;2024-02-21T03:39:33;74225.81;;;-148.52;100.00
3254;BME280;1639;42.804;23.342;2024-02-21T03:41:58;74225.81;;;-148.52;100.00
3254;BME280;1639;42.804;23.342;2024-02-21T03:44:30;74221.66;;;-148.52;100.00
3254;BME280;1639;42.804;23.342;2024-02-21T03:46:56;74215.47;;;-148.52;100.00
3254;BME280;1639;42.804;23.342;2024-02-21T03:49:21;74203.06;;;-148.52;100.00
3254;BME280;1639;42.804;23.342;2024-02-21T03:51:46;74198.91;;;-148.52;100.00
3254;BME280;1639;42.804;23.342;2024-02-21T03:54:12;74192.72;;;-148.52;99.78
3254;BME280;1639;42.804;23.342;2024-02-21T03:56:38;74192.72;;;-148.52;97.71
3254;BME280;1639;42.804;23.342;2024-02-21T03:59:05;74217.53;;;-148.52;96.66
3254;BME280;1639;42.804;23.342;2024-02-21T04:01:31;74209.25;;;-148.52;96.30
3254;BME280;1639;42.804;23.342;2024-02-21T04:03:56;74225.81;;;-148.52;96.12
3254;BME280;1639;42.804;23.342;2024-02-21T04:06:22;74225.81;;;-148.52;96.61
3254;BME280;1639;42.804;23.342;2024-02-21T04:08:47;74227.88;;;-148.52;97.91
3254;BME280;1639;42.804;23.342;2024-02-21T04:11:12;74229.94;;;-148.52;99.94
3254;BME280;1639;42.804;23.342;2024-02-21T04:13:38;74219.59;;;-148.52;100.00
3254;BME280;1639;42.804;23.342;2024-02-21T04:16:03;74211.31;;;-148.52;100.00
3254;BME280;1639;42.804;23.342;2024-02-21T04:18:29;74209.25;;;-148.52;100.00
3254;BME280;1639;42.804;23.342;2024-02-21T04:20:55;74205.13;;;-148.52;99.54
3254;BME280;1639;42.804;23.342;2024-02-21T04:23:20;74194.78;;;-148.52;99.75
3254;BME280;1639;42.804;23.342;2024-02-21T04:25:45;74184.44;;;-148.52;99.78
3254;BME280;1639;42.804;23.342;2024-02-21T04:28:11;74184.44;;;-148.52;98.97
3254;BME280;1639;42.804;23.342;2024-02-21T04:30:36;74209.25;;;-148.52;97.88
3254;BME280;1639;42.804;23.342;2024-02-21T04:33:01;74211.31;;;-148.52;98.00
3254;BME280;1639;42.804;23.342;2024-02-21T04:35:27;74221.66;;;-148.52;97.71
3254;BME280;1639;42.804;23.342;2024-02-21T04:37:52;74221.66;;;-148.52;98.16
3254;BME280;1639;42.804;23.342;2024-02-21T04:40:17;74217.53;;;-148.52;98.12
3254;BME280;1639;42.804;23.342;2024-02-21T04:42:43;74221.66;;;-148.52;98.04
3254;BME280;1639;42.804;23.342;2024-02-21T04:45:09;74223.75;;;-148.52;96.86
3254;BME280;1639;42.804;23.342;2024-02-21T04:47:35;74242.38;;;-148.52;96.64
3254;BME280;1639;42.804;23.342;2024-02-21T04:50:00;74244.44;;;-148.52;97.33
3254;BME280;1639;42.804;23.342;2024-02-21T04:52:25;74250.63;;;-148.52;96.97
3254;BME280;1639;42.804;23.342;2024-02-21T04:54:51;74256.84;;;-148.52;96.93
3254;BME280;1639;42.804;23.342;2024-02-21T04:57:17;74267.19;;;-148.52;97.56
3254;BME280;1639;42.804;23.342;2024-02-21T04:59:45;74260.97;;;-148.52;98.08
3254;BME280;1639;42.804;23.342;2024-02-21T05:02:12;74244.44;;;-148.52;99.09
3254;BME280;1639;42.804;23.342;2024-02-21T05:04:38;74229.94;;;-148.52;98.95
3254;BME280;1639;42.804;23.342;2024-02-21T05:07:04;74234.09;;;-148.52;98.58
3254;BME280;1639;42.804;23.342;2024-02-21T05:09:30;74242.38;;;-148.52;97.53
3254;BME280;1639;42.804;23.342;2024-02-21T05:11:56;74238.22;;;-148.52;96.56
3254;BME280;1639;42.804;23.342;2024-02-21T05:14:21;74242.38;;;-148.52;95.65
3254;BME280;1639;42.804;23.342;2024-02-21T05:16:46;74252.69;;;-148.52;94.48
3254;BME280;1639;42.804;23.342;2024-02-21T05:19:12;74265.13;;;-148.52;94.08
3254;BME280;1639;42.804;23.342;2024-02-21T05:21:37;74265.13;;;-148.52;94.09
3254;BME280;1639;42.804;23.342;2024-02-21T05:24:03;74263.03;;;-148.52;94.46
3254;BME280;1639;42.804;23.342;2024-02-21T05:26:28;74275.47;;;-148.52;94.28
3254;BME280;1639;42.804;23.342;2024-02-21T05:28:54;74277.53;;;-148.52;93.75
3254;BME280;1639;42.804;23.342;2024-02-21T05:31:20;74275.47;;;-148.52;93.71
3254;BME280;1639;42.804;23.342;2024-02-21T05:33:46;74277.53;;;-148.52;93.30
3254;BME280;1639;42.804;23.342;2024-02-21T05:36:12;74283.75;;;-148.52;93.31
3254;BME280;1639;42.804;23.342;2024-02-21T05:38:37;74267.19;;;-148.52;93.62
3254;BME280;1639;42.804;23.342;2024-02-21T05:41:03;74271.31;;;-148.52;92.75
3254;BME280;1639;42.804;23.342;2024-02-21T05:43:29;74289.94;;;-148.52;91.51
3254;BME280;1639;42.804;23.342;2024-02-21T05:45:54;74296.16;;;-148.52;91.88
3254;BME280;1639;42.804;23.342;2024-02-21T05:48:21;74308.56;;;-148.52;91.38
3254;BME280;1639;42.804;23.342;2024-02-21T05:50:47;74337.53;;;-148.52;93.64
3254;BME280;1639;42.804;23.342;2024-02-21T05:53:12;74314.78;;;-148.52;94.85
3254;BME280;1639;42.804;23.342;2024-02-21T05:55:38;74316.84;;;-148.52;94.40
3254;BME280;1639;42.804;23.342;2024-02-21T05:58:04;74316.84;;;-148.52;94.32
3254;BME280;1639;42.804;23.342;2024-02-21T06:00:31;74314.78;;;-148.52;94.34
3254;BME280;1639;42.804;23.342;2024-02-21T06:02:56;74304.44;;;-148.52;95.14
3254;BME280;1639;42.804;23.342;2024-02-21T06:05:21;74292.00;;;-148.52;95.43
3254;BME280;1639;42.804;23.342;2024-02-21T06:07:47;74267.19;;;-148.52;95.77
3254;BME280;1639;42.804;23.342;2024-02-21T06:10:12;74258.91;;;-148.52;95.73
3254;BME280;1639;42.804;23.342;2024-02-21T06:12:37;74238.22;;;-148.52;95.55
3254;BME280;1639;42.804;23.342;2024-02-21T06:15:03;74219.59;;;-148.52;95.06
3254;BME280;1639;42.804;23.342;2024-02-21T06:17:29;74211.31;;;-148.52;94.71
3254;BME280;1639;42.804;23.342;2024-02-21T06:19:54;74205.13;;;-148.52;94.34
3254;BME280;1639;42.804;23.342;2024-02-21T06:22:19;74198.91;;;-148.52;94.01
3254;BME280;1639;42.804;23.342;2024-02-21T06:24:44;74180.28;;;-148.52;93.59
3254;BME280;1639;42.804;23.342;2024-02-21T06:27:11;74180.28;;;-148.52;93.00
3254;BME280;1639;42.804;23.342;2024-02-21T06:29:36;74172.03;;;-148.52;92.01
3254;BME280;1639;42.804;23.342;2024-02-21T06:32:02;74151.34;;;-148.52;90.92
3254;BME280;1639;42.804;23.342;2024-02-21T06:34:27;74130.66;;;-148.52;90.47
3254;BME280;1639;42.804;23.342;2024-02-21T06:36:53;74112.03;;;-148.52;89.61
3254;BME280;1639;42.804;23.342;2024-02-21T06:39:18;74097.53;;;-148.52;88.53
3254;BME280;1639;42.804;23.342;2024-02-21T06:41:44;74105.81;;;-148.52;87.57
3254;BME280;1639;42.804;23.342;2024-02-21T06:44:10;74103.75;;;-148.52;84.39
3254;BME280;1639;42.804;23.342;2024-02-21T06:46:35;74097.53;;;-148.52;83.32
3254;BME280;1639;42.804;23.342;2024-02-21T06:49:01;74072.72;;;-148.52;83.33
3254;BME280;1639;42.804;23.342;2024-02-21T06:51:27;74052.03;;;-148.52;82.08
3254;BME280;1639;42.804;23.342;2024-02-21T06:53:53;74060.31;;;-148.52;81.34
3254;BME280;1639;42.804;23.342;2024-02-21T06:56:19;74056.16;;;-148.52;79.48
3254;BME280;1639;42.804;23.342;2024-02-21T06:58:45;74066.50;;;-148.52;79.79
3254;BME280;1639;42.804;23.342;2024-02-21T07:01:10;74072.72;;;-148.52;79.50
3254;BME280;1639;42.804;23.342;2024-02-21T07:03:36;74064.44;;;-148.52;78.94
3254;BME280;1639;42.804;23.342;2024-02-21T07:06:02;74081.00;;;-148.52;78.11
3254;BME280;1639;42.804;23.342;2024-02-21T07:08:27;74060.31;;;-148.52;77.47
3254;BME280;1639;42.804;23.342;2024-02-21T07:10:52;74056.16;;;-148.52;76.93
3254;BME280;1639;42.804;23.342;2024-02-21T07:13:18;74064.44;;;-148.52;76.87
3254;BME280;1639;42.804;23.342;2024-02-21T07:15:43;74068.59;;;-148.52;76.52
3254;BME280;1639;42.804;23.342;2024-02-21T07:18:09;74043.75;;;-148.52;77.57
3254;BME280;1639;42.804;23.342;2024-02-21T07:20:34;74006.53;;;-148.52;78.05
3254;BME280;1639;42.804;23.342;2024-02-21T07:23:02;73975.47;;;-148.52;76.72
3254;BME280;1639;42.804;23.342;2024-02-21T07:25:27;73942.38;;;-148.52;75.95
3254;BME280;1639;42.804;23.342;2024-02-21T07:27:53;73929.97;;;-148.52;75.89
3254;BME280;1639;42.804;23.342;2024-02-21T07:30:18;73952.72;;;-148.52;74.20
3254;BME280;1639;42.804;23.342;2024-02-21T07:32:44;73965.16;;;-148.52;73.67
3254;BME280;1639;42.804;23.342;2024-02-21T07:35:09;73994.09;;;-148.52;73.71
3254;BME280;1639;42.804;23.342;2024-02-21T07:37:37;73985.81;;;-148.52;74.54
3254;BME280;1639;42.804;23.342;2024-02-21T07:40:05;73977.56;;;-148.52;73.82
3254;BME280;1639;42.804;23.342;2024-02-21T07:42:30;73981.69;;;-148.52;73.43
3254;BME280;1639;42.804;23.342;2024-02-21T07:44:55;73973.41;;;-148.52;73.84
3254;BME280;1639;42.804;23.342;2024-02-21T07:47:22;73969.28;;;-148.52;72.12
3254;BME280;1639;42.804;23.342;2024-02-21T07:49:47;73977.56;;;-148.52;71.17
3254;BME280;1639;42.804;23.342;2024-02-21T07:52:14;73965.16;;;-148.52;70.23
3254;BME280;1639;42.804;23.342;2024-02-21T07:54:39;74000.31;;;-148.52;72.02
3254;BME280;1639;42.804;23.342;2024-02-21T07:57:05;73948.59;;;-148.52;71.29
3254;BME280;1639;42.804;23.342;2024-02-21T07:59:30;73925.84;;;-148.52;71.53
3254;BME280;1639;42.804;23.342;2024-02-21T08:01:56;73880.31;;;-148.52;68.61
3254;BME280;1639;42.804;23.342;2024-02-21T08:04:23;73872.06;;;-148.52;68.62
3254;BME280;1639;42.804;23.342;2024-02-21T08:06:52;73878.25;;;-148.52;67.83
3254;BME280;1639;42.804;23.342;2024-02-21T08:09:18;73857.56;;;-148.52;69.99
3254;BME280;1639;42.804;23.342;2024-02-21T08:11:44;73853.44;;;-148.52;70.86
3254;BME280;1639;42.804;23.342;2024-02-21T08:14:09;73863.78;;;-148.52;70.92
3254;BME280;1639;42.804;23.342;2024-02-21T08:16:35;73849.28;;;-148.52;70.26
3254;BME280;1639;42.804;23.342;2024-02-21T08:19:00;73828.59;;;-148.52;70.42
3254;BME280;1639;42.804;23.342;2024-02-21T08:21:27;73797.59;;;-148.52;68.90
3254;BME280;1639;42.804;23.342;2024-02-21T08:23:53;73791.38;;;-148.52;67.50
3254;BME280;1639;42.804;23.342;2024-02-21T08:26:19;73801.72;;;-148.52;67.16
3254;BME280;1639;42.804;23.342;2024-02-21T08:28:45;73795.50;;;-148.52;67.60
3254;BME280;1639;42.804;23.342;2024-02-21T08:31:10;73778.97;;;-148.52;66.29
3254;BME280;1639;42.804;23.342;2024-02-21T08:33:35;73799.66;;;-148.52;66.70
3254;BME280;1639;42.804;23.342;2024-02-21T08:36:01;73791.38;;;-148.52;66.44
3254;BME280;1639;42.804;23.342;2024-02-21T08:38:26;73783.09;;;-148.52;66.98
3254;BME280;1639;42.804;23.342;2024-02-21T08:40:52;73799.66;;;-148.52;68.01
3254;BME280;1639;42.804;23.342;2024-02-21T08:43:17;73785.16;;;-148.52;67.43
3254;BME280;1639;42.804;23.342;2024-02-21T08:45:42;73791.38;;;-148.52;67.98
3254;BME280;1639;42.804;23.342;2024-02-21T08:48:08;73795.50;;;-148.52;67.31
3254;BME280;1639;42.804;23.342;2024-02-21T08:50:33;73824.47;;;-148.52;68.00
3254;BME280;1639;42.804;23.342;2024-02-21T08:52:58;73853.44;;;-148.52;68.31
3254;BME280;1639;42.804;23.342;2024-02-21T08:55:24;73836.88;;;-148.52;69.21
3254;BME280;1639;42.804;23.342;2024-02-21T08:57:49;73828.59;;;-148.52;67.71
3254;BME280;1639;42.804;23.342;2024-02-21T09:00:15;73824.47;;;-148.52;67.24
3254;BME280;1639;42.804;23.342;2024-02-21T09:02:41;73822.41;;;-148.52;67.80
3254;BME280;1639;42.804;23.342;2024-02-21T09:05:09;73826.53;;;-148.52;65.60
3254;BME280;1639;42.804;23.342;2024-02-21T09:07:35;73795.50;;;-148.52;66.55
3254;BME280;1639;42.804;23.342;2024-02-21T09:10:00;73783.09;;;-148.52;65.73
3254;BME280;1639;42.804;23.342;2024-02-21T09:12:26;73785.16;;;-148.52;64.72
3254;BME280;1639;42.804;23.342;2024-02-21T09:14:52;73791.38;;;-148.52;65.90
3254;BME280;1639;42.804;23.342;2024-02-21T09:17:17;73772.75;;;-148.52;62.11
3254;BME280;1639;42.804;23.342;2024-02-21T09:19:44;73752.06;;;-148.52;62.86
3254;BME280;1639;42.804;23.342;2024-02-21T09:22:09;73731.38;;;-148.52;61.58
3254;BME280;1639;42.804;23.342;2024-02-21T09:24:34;73712.75;;;-148.52;59.84
3254;BME280;1639;42.804;23.342;2024-02-21T09:27:00;73727.25;;;-148.52;60.12
3254;BME280;1639;42.804;23.342;2024-02-21T09:29:25;73729.31;;;-148.52;62.01
3254;BME280;1639;42.804;23.342;2024-02-21T09:31:51;73727.25;;;-148.52;60.74
3254;BME280;1639;42.804;23.342;2024-02-21T09:34:17;73710.69;;;-148.52;60.50
3254;BME280;1639;42.804;23.342;2024-02-21T09:36:43;73694.16;;;-148.52;60.55
3254;BME280;1639;42.804;23.342;2024-02-21T09:39:09;73683.81;;;-148.52;59.99
3254;BME280;1639;42.804;23.342;2024-02-21T09:41:45;73687.94;;;-148.52;60.24
3254;BME280;1639;42.804;23.342;2024-02-21T09:44:13;73663.13;;;-148.52;58.45
3254;BME280;1639;42.804;23.342;2024-02-21T09:47:04;73648.63;;;-148.52;59.74
3254;BME280;1639;42.804;23.342;2024-02-21T09:49:34;73650.72;;;-148.52;60.56
3254;BME280;1639;42.804;23.342;2024-02-21T09:52:04;73588.66;;;-148.52;57.80
3254;BME280;1639;42.804;23.342;2024-02-21T09:54:33;73578.31;;;-148.52;56.29
3254;BME280;1639;42.804;23.342;2024-02-21T09:57:03;73590.72;;;-148.52;55.39
3254;BME280;1639;42.804;23.342;2024-02-21T09:59:30;73592.78;;;-148.52;56.97
3254;BME280;1639;42.804;23.342;2024-02-21T10:01:56;73563.84;;;-148.52;55.78
3254;BME280;1639;42.804;23.342;2024-02-21T10:04:21;73561.75;;;-148.52;56.29
3254;BME280;1639;42.804;23.342;2024-02-21T10:06:47;73553.50;;;-148.52;55.00
3254;BME280;1639;42.804;23.342;2024-02-21T10:09:23;73530.75;;;-148.52;55.17
3254;BME280;1639;42.804;23.342;2024-02-21T10:11:50;73541.06;;;-148.52;54.64
3254;BME280;1639;42.804;23.342;2024-02-21T10:14:16;73524.53;;;-148.52;56.09
3254;BME280;1639;42.804;23.342;2024-02-21T10:16:42;73491.44;;;-148.52;56.89
3254;BME280;1639;42.804;23.342;2024-02-21T10:19:19;73445.94;;;-148.52;54.83
3254;BME280;1639;42.804;23.342;2024-02-21T10:21:45;73429.38;;;-148.52;54.79
3254;BME280;1639;42.804;23.342;2024-02-21T10:24:12;73423.19;;;-148.52;54.37
3254;BME280;1639;42.804;23.342;2024-02-21T10:26:37;73406.63;;;-148.52;54.67
3254;BME280;1639;42.804;23.342;2024-02-21T10:29:03;73414.91;;;-148.52;53.32
3254;BME280;1639;42.804;23.342;2024-02-21T10:31:29;73414.91;;;-148.52;52.94
3254;BME280;1639;42.804;23.342;2024-02-21T10:36:20;73414.91;;;-148.52;53.04
3254;BME280;1639;42.804;23.342;2024-02-21T10:38:46;73419.03;;;-148.52;53.47
3254;BME280;1639;42.804;23.342;2024-02-21T10:41:14;73390.09;;;-148.52;54.63
3254;BME280;1639;42.804;23.342;2024-02-21T10:43:41;73357.00;;;-148.52;54.98
3254;BME280;1639;42.804;23.342;2024-02-21T10:46:07;73330.09;;;-148.52;51.12
3254;BME280;1639;42.804;23.342;2024-02-21T10:48:42;73346.66;;;-148.52;51.37
3254;BME280;1639;42.804;23.342;2024-02-21T10:56:49;73297.00;;;-148.52;49.29
3254;BME280;1639;42.804;23.342;2024-02-21T10:59:15;73270.13;;;-148.52;50.22
3254;BME280;1639;42.804;23.342;2024-02-21T11:01:42;73232.88;;;-148.52;47.95
3254;BME280;1639;42.804;23.342;2024-02-21T11:04:08;73224.63;;;-148.52;47.78
3254;BME280;1639;42.804;23.342;2024-02-21T11:06:37;73195.66;;;-148.52;48.69
3254;BME280;1639;42.804;23.342;2024-02-21T11:09:07;73177.03;;;-148.52;47.84
3254;BME280;1639;42.804;23.342;2024-02-21T11:11:41;73179.09;;;-148.52;48.18
3254;BME280;1639;42.804;23.342;2024-02-21T11:16:40;73224.63;;;-148.52;46.98
3254;BME280;1639;42.804;23.342;2024-02-21T11:19:09;73253.56;;;-148.52;48.02
3254;BME280;1639;42.804;23.342;2024-02-21T11:21:37;73274.25;;;-148.52;48.34
3254;BME280;1639;42.804;23.342;2024-02-21T11:24:06;73305.28;;;-148.52;48.62
3254;BME280;1639;42.804;23.342;2024-02-21T11:26:32;73303.22;;;-148.52;48.93
3254;BME280;1639;42.804;23.342;2024-02-21T11:29:01;73319.75;;;-148.52;48.93
3254;BME280;1639;42.804;23.342;2024-02-21T11:31:38;73338.38;;;-148.52;48.34
3254;BME280;1639;42.804;23.342;2024-02-21T11:34:04;73361.13;;;-148.52;48.12
3254;BME280;1639;42.804;23.342;2024-02-21T11:36:30;73383.88;;;-148.52;49.04
3254;BME280;1639;42.804;23.342;2024-02-21T11:39:03;73383.88;;;-148.52;50.14
3254;BME280;1639;42.804;23.342;2024-02-21T11:41:29;73402.50;;;-148.52;49.88
3254;BME280;1639;42.804;23.342;2024-02-21T11:43:54;73414.91;;;-148.52;50.45
3254;BME280;1639;42.804;23.342;2024-02-21T11:46:20;73414.91;;;-148.52;51.42
3254;BME280;1639;42.804;23.342;2024-02-21T11:48:46;73423.19;;;-148.52;51.41
3254;BME280;1639;42.804;23.342;2024-02-21T11:51:21;73429.38;;;-148.52;52.19
3254;BME280;1639;42.804;23.342;2024-02-21T11:53:48;73425.25;;;-148.52;51.82
3254;BME280;1639;42.804;23.342;2024-02-21T11:56:14;73433.53;;;-148.52;51.38
3254;BME280;1639;42.804;23.342;2024-02-21T11:58:39;73429.38;;;-148.52;50.70
3254;BME280;1639;42.804;23.342;2024-02-21T12:01:04;73412.84;;;-148.52;51.81
3254;BME280;1639;42.804;23.342;2024-02-21T12:03:31;73419.03;;;-148.52;50.54
3254;BME280;1639;42.804;23.342;2024-02-21T12:05:57;73404.56;;;-148.52;51.89
3254;BME280;1639;42.804;23.342;2024-02-21T12:08:23;73427.31;;;-148.52;52.13
3254;BME280;1639;42.804;23.342;2024-02-21T12:10:49;73445.94;;;-148.52;51.94
3254;BME280;1639;42.804;23.342;2024-02-21T12:13:16;73450.06;;;-148.52;51.62
3254;BME280;1639;42.804;23.342;2024-02-21T12:15:47;73462.47;;;-148.52;52.97
3254;BME280;1639;42.804;23.342;2024-02-21T12:18:14;73456.28;;;-148.52;52.29
3254;BME280;1639;42.804;23.342;2024-02-21T12:20:40;73448.00;;;-148.52;51.37
3254;BME280;1639;42.804;23.342;2024-02-21T12:23:09;73450.06;;;-148.52;51.41
3254;BME280;1639;42.804;23.342;2024-02-21T12:25:35;73452.13;;;-148.52;52.59
3254;BME280;1639;42.804;23.342;2024-02-21T12:28:00;73472.81;;;-148.52;53.20
3254;BME280;1639;42.804;23.342;2024-02-21T12:30:25;73481.09;;;-148.52;54.55
3254;BME280;1639;42.804;23.342;2024-02-21T12:32:51;73541.06;;;-148.52;56.90
3254;BME280;1639;42.804;23.342;2024-02-21T12:35:17;73592.78;;;-148.52;59.38
3254;BME280;1639;42.804;23.342;2024-02-21T12:37:43;73625.88;;;-148.52;60.60
3254;BME280;1639;42.804;23.342;2024-02-21T12:40:08;73652.78;;;-148.52;61.63
3254;BME280;1639;42.804;23.342;2024-02-21T12:42:35;73667.25;;;-148.52;62.36
3254;BME280;1639;42.804;23.342;2024-02-21T12:45:02;73665.19;;;-148.52;63.34
3254;BME280;1639;42.804;23.342;2024-02-21T12:47:28;73667.25;;;-148.52;63.00
3254;BME280;1639;42.804;23.342;2024-02-21T12:49:53;73654.84;;;-148.52;63.66
3254;BME280;1639;42.804;23.342;2024-02-21T12:52:19;73640.38;;;-148.52;63.00
3254;BME280;1639;42.804;23.342;2024-02-21T12:54:44;73656.91;;;-148.52;63.38